Airfield :
LOGIN :

Register | Disclaimer

   EN    FR    IT 

 










Legend :    VFR   Marginal VFR   IFR   Intensive IFR   Very Intensive IFR
Visi :
Ceiling :
>= 8 km
>= 3000ft
5 to 8 km
1000 to 3000 ft
1500m to 5 km
500 to 1000 ft
800 to 1500m
200 to 500 ft
< 800m
< 200 ft
Symbols :   Thunderstorms  Fog  Heavy snow  Heavy precipitations  Wind > 20 kt
SIGMETs :     Misc.  Thunderstorms  Icing  Turbulence  Mountain Waves  Volcanic Ashes







- Airport Elevation : 436 ft
- IATA code : BTS


LZIB - Bratislava

CURRENT METAR :
  • 120630Z 29006KT 9999 FEW016 SCT061 BKN074 02/M00 Q1018 NOSIG

EXPIRED METARs :
  • 120600Z 27005KT 9999 FEW016 BKN075 02/M00 Q1017 NOSIG
  • 120530Z 26007KT 9999 FEW010 BKN017 02/M00 Q1017 NOSIG
  • 120500Z 27006KT 9999 BKN017 02/M00 Q1017 NOSIG
  • 120430Z 26006KT 9999 FEW009 BKN016 02/00 Q1017
  • 120400Z 27006KT 9999 FEW010 BKN017 02/M00 Q1017

TAF TAF LZIB
Valid from the 12 at 06:00 until the 13 at 06:00 UTC


120500Z 1206/1306 30007KT 9999 SCT016 BKN050
TEMPO 1206/1208 7000 -RASN FEW010 BKN023
TEMPO 1208/1212 -SHRA BKN035
BECMG 1216/1218 VRB02KT FEW040 SCT090
TEMPO 1222/1306 3200 BR SCT006
PROB40
TEMPO 1302/1306 1200 BCFG BKN003
No reported NOTAMs for that airfield.



MET'MAP, your aeronautical weather chart ! - Copyright ORBIFLY December 2007 - Disclaimer

ORBIFLY MET'MAP TEAM :

Programming & Development : Alexandra Zaïnal
Concept & Development : Baudouin d'Aumeries
Co-Development & Prog : Marc-Olivier Méhu
Technical & hardware support : Manuel Goepfert

Contact : metmap@orbifly.com




SOURCES & CREDITS :

   NOAA